sensor_id;sensor_type;location;lat;lon;timestamp;temperature;humidity
25825;DHT22;13658;44.534;18.694;2022-09-17T00:01:21;16.40;99.90
25825;DHT22;13658;44.534;18.694;2022-09-17T00:03:53;15.90;99.90
25825;DHT22;13658;44.534;18.694;2022-09-17T00:06:21;16.10;99.90
25825;DHT22;13658;44.534;18.694;2022-09-17T00:08:48;16.40;99.90
25825;DHT22;13658;44.534;18.694;2022-09-17T00:11:22;16.30;99.90
25825;DHT22;13658;44.534;18.694;2022-09-17T00:13:49;16.30;99.90
25825;DHT22;13658;44.534;18.694;2022-09-17T00:16:24;15.80;99.90
25825;DHT22;13658;44.534;18.694;2022-09-17T00:18:50;15.90;99.90
25825;DHT22;13658;44.534;18.694;2022-09-17T00:21:17;16.20;99.90
25825;DHT22;13658;44.534;18.694;2022-09-17T00:23:44;15.90;99.90
25825;DHT22;13658;44.534;18.694;2022-09-17T00:26:10;15.90;99.90
25825;DHT22;13658;44.534;18.694;2022-09-17T00:28:37;15.90;99.90
25825;DHT22;13658;44.534;18.694;2022-09-17T00:31:07;15.70;99.90
25825;DHT22;13658;44.534;18.694;2022-09-17T00:33:34;15.80;99.90
25825;DHT22;13658;44.534;18.694;2022-09-17T00:36:01;15.50;99.90
25825;DHT22;13658;44.534;18.694;2022-09-17T00:38:31;15.80;99.90
25825;DHT22;13658;44.534;18.694;2022-09-17T00:40:57;15.60;99.90
25825;DHT22;13658;44.534;18.694;2022-09-17T00:43:39;15.60;99.90
25825;DHT22;13658;44.534;18.694;2022-09-17T00:46:32;15.40;99.90
25825;DHT22;13658;44.534;18.694;2022-09-17T00:48:58;15.00;99.90
25825;DHT22;13658;44.534;18.694;2022-09-17T00:51:30;14.90;99.90
25825;DHT22;13658;44.534;18.694;2022-09-17T00:53:59;14.90;99.90
25825;DHT22;13658;44.534;18.694;2022-09-17T00:56:29;15.10;99.90
25825;DHT22;13658;44.534;18.694;2022-09-17T00:58:56;14.80;99.90
25825;DHT22;13658;44.534;18.694;2022-09-17T01:01:23;14.80;99.90
25825;DHT22;13658;44.534;18.694;2022-09-17T01:03:49;14.70;99.90
25825;DHT22;13658;44.534;18.694;2022-09-17T01:14:22;15.70;99.90
25825;DHT22;13658;44.534;18.694;2022-09-17T01:17:06;15.70;99.90
25825;DHT22;13658;44.534;18.694;2022-09-17T01:39:06;14.50;99.90
25825;DHT22;13658;44.534;18.694;2022-09-17T01:44:30;14.70;99.90
25825;DHT22;13658;44.534;18.694;2022-09-17T01:50:08;14.40;99.90
25825;DHT22;13658;44.534;18.694;2022-09-17T01:52:38;14.30;99.90
25825;DHT22;13658;44.534;18.694;2022-09-17T01:55:13;14.40;99.90
25825;DHT22;13658;44.534;18.694;2022-09-17T01:57:43;14.50;99.90
25825;DHT22;13658;44.534;18.694;2022-09-17T02:00:12;14.50;99.90
25825;DHT22;13658;44.534;18.694;2022-09-17T02:05:11;14.50;99.90
25825;DHT22;13658;44.534;18.694;2022-09-17T02:07:45;14.40;99.90
25825;DHT22;13658;44.534;18.694;2022-09-17T02:10:18;14.30;99.90
25825;DHT22;13658;44.534;18.694;2022-09-17T02:12:49;14.30;99.90
25825;DHT22;13658;44.534;18.694;2022-09-17T02:15:23;14.50;99.90
25825;DHT22;13658;44.534;18.694;2022-09-17T02:20:51;14.20;99.90
25825;DHT22;13658;44.534;18.694;2022-09-17T02:23:27;13.80;99.90
25825;DHT22;13658;44.534;18.694;2022-09-17T02:26:07;14.00;99.90
25825;DHT22;13658;44.534;18.694;2022-09-17T02:28:52;13.80;99.90
25825;DHT22;13658;44.534;18.694;2022-09-17T02:31:20;13.90;99.90
25825;DHT22;13658;44.534;18.694;2022-09-17T02:33:53;14.00;99.90
25825;DHT22;13658;44.534;18.694;2022-09-17T02:36:21;13.90;99.90
25825;DHT22;13658;44.534;18.694;2022-09-17T02:38:57;13.90;99.90
25825;DHT22;13658;44.534;18.694;2022-09-17T02:53:11;13.90;99.90
25825;DHT22;13658;44.534;18.694;2022-09-17T02:55:19;14.00;99.90
25825;DHT22;13658;44.534;18.694;2022-09-17T03:00:37;14.10;99.90
25825;DHT22;13658;44.534;18.694;2022-09-17T03:03:27;13.90;99.90
25825;DHT22;13658;44.534;18.694;2022-09-17T03:05:56;13.60;99.90
25825;DHT22;13658;44.534;18.694;2022-09-17T03:08:36;13.60;99.90
25825;DHT22;13658;44.534;18.694;2022-09-17T03:11:05;13.70;99.90
25825;DHT22;13658;44.534;18.694;2022-09-17T03:13:34;12.90;99.90
25825;DHT22;13658;44.534;18.694;2022-09-17T03:16:04;12.80;99.90
25825;DHT22;13658;44.534;18.694;2022-09-17T03:18:31;12.80;99.90
25825;DHT22;13658;44.534;18.694;2022-09-17T03:20:57;12.80;99.90
25825;DHT22;13658;44.534;18.694;2022-09-17T03:23:23;12.70;99.90
25825;DHT22;13658;44.534;18.694;2022-09-17T03:25:50;12.10;99.90
25825;DHT22;13658;44.534;18.694;2022-09-17T03:28:16;11.90;99.90
25825;DHT22;13658;44.534;18.694;2022-09-17T03:30:43;11.60;99.90
25825;DHT22;13658;44.534;18.694;2022-09-17T03:33:09;11.90;99.90
25825;DHT22;13658;44.534;18.694;2022-09-17T03:35:35;12.00;99.90
25825;DHT22;13658;44.534;18.694;2022-09-17T03:38:02;12.10;99.90
25825;DHT22;13658;44.534;18.694;2022-09-17T03:40:28;11.90;99.90
25825;DHT22;13658;44.534;18.694;2022-09-17T03:42:54;12.10;99.90
25825;DHT22;13658;44.534;18.694;2022-09-17T03:45:20;12.20;99.90
25825;DHT22;13658;44.534;18.694;2022-09-17T03:47:46;12.20;99.90
25825;DHT22;13658;44.534;18.694;2022-09-17T03:50:12;11.90;99.90
25825;DHT22;13658;44.534;18.694;2022-09-17T03:52:38;12.00;99.90
25825;DHT22;13658;44.534;18.694;2022-09-17T03:55:04;11.90;99.90
25825;DHT22;13658;44.534;18.694;2022-09-17T03:57:31;11.90;99.90
25825;DHT22;13658;44.534;18.694;2022-09-17T03:59:56;12.00;99.90
25825;DHT22;13658;44.534;18.694;2022-09-17T04:02:22;12.10;99.90
25825;DHT22;13658;44.534;18.694;2022-09-17T04:04:48;12.00;99.90
25825;DHT22;13658;44.534;18.694;2022-09-17T04:07:14;11.90;99.90
25825;DHT22;13658;44.534;18.694;2022-09-17T04:09:40;11.80;99.90
25825;DHT22;13658;44.534;18.694;2022-09-17T04:12:06;11.80;99.90
25825;DHT22;13658;44.534;18.694;2022-09-17T04:14:32;11.90;99.90
25825;DHT22;13658;44.534;18.694;2022-09-17T04:16:58;11.80;99.90
25825;DHT22;13658;44.534;18.694;2022-09-17T04:19:24;11.70;99.90
25825;DHT22;13658;44.534;18.694;2022-09-17T04:21:50;11.60;99.90
25825;DHT22;13658;44.534;18.694;2022-09-17T04:24:15;11.70;99.90
25825;DHT22;13658;44.534;18.694;2022-09-17T04:26:41;11.90;99.90
25825;DHT22;13658;44.534;18.694;2022-09-17T04:29:07;11.70;99.90
25825;DHT22;13658;44.534;18.694;2022-09-17T04:31:41;11.70;99.90
25825;DHT22;13658;44.534;18.694;2022-09-17T04:34:07;11.80;99.90
25825;DHT22;13658;44.534;18.694;2022-09-17T04:36:33;11.90;99.90
25825;DHT22;13658;44.534;18.694;2022-09-17T04:38:59;11.80;99.90
25825;DHT22;13658;44.534;18.694;2022-09-17T04:41:25;11.80;99.90
25825;DHT22;13658;44.534;18.694;2022-09-17T04:43:51;11.70;99.90
25825;DHT22;13658;44.534;18.694;2022-09-17T04:46:17;11.80;99.90
25825;DHT22;13658;44.534;18.694;2022-09-17T04:48:43;11.90;99.90
25825;DHT22;13658;44.534;18.694;2022-09-17T04:51:09;12.00;99.90
25825;DHT22;13658;44.534;18.694;2022-09-17T04:53:35;12.00;99.90
25825;DHT22;13658;44.534;18.694;2022-09-17T04:56:02;12.20;99.90
25825;DHT22;13658;44.534;18.694;2022-09-17T04:58:28;12.20;99.90
25825;DHT22;13658;44.534;18.694;2022-09-17T05:00:56;12.30;99.90
25825;DHT22;13658;44.534;18.694;2022-09-17T05:03:21;12.20;99.90
25825;DHT22;13658;44.534;18.694;2022-09-17T05:05:47;12.30;99.90
25825;DHT22;13658;44.534;18.694;2022-09-17T05:08:13;12.40;99.90
25825;DHT22;13658;44.534;18.694;2022-09-17T05:10:39;12.30;99.90
25825;DHT22;13658;44.534;18.694;2022-09-17T05:13:05;12.20;99.90
25825;DHT22;13658;44.534;18.694;2022-09-17T05:15:31;12.30;99.90
25825;DHT22;13658;44.534;18.694;2022-09-17T05:17:57;12.30;99.90
25825;DHT22;13658;44.534;18.694;2022-09-17T05:20:23;12.40;99.90
25825;DHT22;13658;44.534;18.694;2022-09-17T05:22:50;12.40;99.90
25825;DHT22;13658;44.534;18.694;2022-09-17T05:25:19;12.30;99.90
25825;DHT22;13658;44.534;18.694;2022-09-17T05:27:45;12.40;99.90
25825;DHT22;13658;44.534;18.694;2022-09-17T05:30:12;12.30;99.90
25825;DHT22;13658;44.534;18.694;2022-09-17T05:32:38;12.30;99.90
25825;DHT22;13658;44.534;18.694;2022-09-17T05:35:05;12.30;99.90
25825;DHT22;13658;44.534;18.694;2022-09-17T05:37:32;12.40;99.90
25825;DHT22;13658;44.534;18.694;2022-09-17T05:39:58;12.30;99.90
25825;DHT22;13658;44.534;18.694;2022-09-17T05:42:50;12.30;99.90
25825;DHT22;13658;44.534;18.694;2022-09-17T05:45:16;12.30;99.90
25825;DHT22;13658;44.534;18.694;2022-09-17T05:47:42;12.40;99.90
25825;DHT22;13658;44.534;18.694;2022-09-17T05:50:08;12.20;99.90
25825;DHT22;13658;44.534;18.694;2022-09-17T05:52:34;12.40;99.90
25825;DHT22;13658;44.534;18.694;2022-09-17T05:55:00;12.40;99.90
25825;DHT22;13658;44.534;18.694;2022-09-17T05:57:28;12.40;99.90
25825;DHT22;13658;44.534;18.694;2022-09-17T05:59:55;12.40;99.90
25825;DHT22;13658;44.534;18.694;2022-09-17T06:02:21;12.40;99.90
25825;DHT22;13658;44.534;18.694;2022-09-17T06:04:46;12.20;99.90
25825;DHT22;13658;44.534;18.694;2022-09-17T06:07:12;12.20;99.90
25825;DHT22;13658;44.534;18.694;2022-09-17T06:09:38;12.10;99.90
25825;DHT22;13658;44.534;18.694;2022-09-17T06:12:07;12.20;99.90
25825;DHT22;13658;44.534;18.694;2022-09-17T06:14:35;12.40;99.90
25825;DHT22;13658;44.534;18.694;2022-09-17T06:17:03;12.40;99.90
25825;DHT22;13658;44.534;18.694;2022-09-17T06:19:30;12.50;99.90
25825;DHT22;13658;44.534;18.694;2022-09-17T06:21:57;12.50;99.90
25825;DHT22;13658;44.534;18.694;2022-09-17T06:24:23;12.50;99.90
25825;DHT22;13658;44.534;18.694;2022-09-17T06:26:50;12.40;99.90
25825;DHT22;13658;44.534;18.694;2022-09-17T06:29:16;12.40;99.90
25825;DHT22;13658;44.534;18.694;2022-09-17T06:31:42;12.50;99.90
25825;DHT22;13658;44.534;18.694;2022-09-17T06:34:11;12.50;99.90
25825;DHT22;13658;44.534;18.694;2022-09-17T06:36:37;12.60;99.90
25825;DHT22;13658;44.534;18.694;2022-09-17T06:39:03;12.50;99.90
25825;DHT22;13658;44.534;18.694;2022-09-17T06:41:29;12.60;99.90
25825;DHT22;13658;44.534;18.694;2022-09-17T06:43:55;12.50;99.90
25825;DHT22;13658;44.534;18.694;2022-09-17T06:46:21;12.40;99.90
25825;DHT22;13658;44.534;18.694;2022-09-17T06:48:47;12.50;99.90
25825;DHT22;13658;44.534;18.694;2022-09-17T06:51:13;12.50;99.90
25825;DHT22;13658;44.534;18.694;2022-09-17T06:53:39;12.40;99.90
25825;DHT22;13658;44.534;18.694;2022-09-17T06:56:07;12.40;99.90
25825;DHT22;13658;44.534;18.694;2022-09-17T06:58:35;12.30;99.90
25825;DHT22;13658;44.534;18.694;2022-09-17T07:01:06;12.50;99.90
25825;DHT22;13658;44.534;18.694;2022-09-17T07:03:34;12.50;99.90
25825;DHT22;13658;44.534;18.694;2022-09-17T07:06:00;12.50;99.90
25825;DHT22;13658;44.534;18.694;2022-09-17T07:08:26;12.50;99.90
25825;DHT22;13658;44.534;18.694;2022-09-17T07:10:56;12.60;99.90
25825;DHT22;13658;44.534;18.694;2022-09-17T07:13:23;12.60;99.90
25825;DHT22;13658;44.534;18.694;2022-09-17T07:15:56;12.60;99.90
25825;DHT22;13658;44.534;18.694;2022-09-17T07:18:23;12.70;99.90
25825;DHT22;13658;44.534;18.694;2022-09-17T07:20:55;12.60;99.90
25825;DHT22;13658;44.534;18.694;2022-09-17T07:23:27;12.70;99.90
25825;DHT22;13658;44.534;18.694;2022-09-17T07:25:55;12.80;99.90
25825;DHT22;13658;44.534;18.694;2022-09-17T07:28:21;12.80;99.90
25825;DHT22;13658;44.534;18.694;2022-09-17T07:30:49;12.80;99.90
25825;DHT22;13658;44.534;18.694;2022-09-17T07:33:16;13.00;99.90
25825;DHT22;13658;44.534;18.694;2022-09-17T07:35:55;13.00;99.90
25825;DHT22;13658;44.534;18.694;2022-09-17T07:38:21;12.90;99.90
25825;DHT22;13658;44.534;18.694;2022-09-17T07:41:01;12.90;99.90
25825;DHT22;13658;44.534;18.694;2022-09-17T07:43:29;12.90;99.90
25825;DHT22;13658;44.534;18.694;2022-09-17T07:45:57;12.80;99.90
25825;DHT22;13658;44.534;18.694;2022-09-17T07:48:23;12.90;99.90
25825;DHT22;13658;44.534;18.694;2022-09-17T07:50:49;12.70;99.90
25825;DHT22;13658;44.534;18.694;2022-09-17T07:53:15;12.70;99.90
25825;DHT22;13658;44.534;18.694;2022-09-17T07:55:41;12.80;99.90
25825;DHT22;13658;44.534;18.694;2022-09-17T07:58:08;12.80;99.90
25825;DHT22;13658;44.534;18.694;2022-09-17T08:00:34;12.90;99.90
25825;DHT22;13658;44.534;18.694;2022-09-17T08:03:00;12.80;99.90
25825;DHT22;13658;44.534;18.694;2022-09-17T08:05:26;12.90;99.90
25825;DHT22;13658;44.534;18.694;2022-09-17T08:07:53;12.70;99.90
25825;DHT22;13658;44.534;18.694;2022-09-17T08:10:20;12.80;99.90
25825;DHT22;13658;44.534;18.694;2022-09-17T08:12:54;12.90;99.90
25825;DHT22;13658;44.534;18.694;2022-09-17T08:15:20;13.00;99.90
25825;DHT22;13658;44.534;18.694;2022-09-17T08:17:47;12.90;99.90
25825;DHT22;13658;44.534;18.694;2022-09-17T08:20:14;12.90;99.90
25825;DHT22;13658;44.534;18.694;2022-09-17T08:22:41;12.90;99.90
25825;DHT22;13658;44.534;18.694;2022-09-17T08:25:08;12.80;99.90
25825;DHT22;13658;44.534;18.694;2022-09-17T08:27:35;13.00;99.90
25825;DHT22;13658;44.534;18.694;2022-09-17T08:30:07;13.00;99.90
25825;DHT22;13658;44.534;18.694;2022-09-17T08:32:33;13.00;99.90
25825;DHT22;13658;44.534;18.694;2022-09-17T08:34:59;13.00;99.90
25825;DHT22;13658;44.534;18.694;2022-09-17T08:37:26;13.00;99.90
25825;DHT22;13658;44.534;18.694;2022-09-17T08:39:54;13.00;99.90
25825;DHT22;13658;44.534;18.694;2022-09-17T08:42:28;13.20;99.90
25825;DHT22;13658;44.534;18.694;2022-09-17T08:44:56;13.30;99.90
25825;DHT22;13658;44.534;18.694;2022-09-17T08:47:32;13.20;99.90
25825;DHT22;13658;44.534;18.694;2022-09-17T08:50:05;13.30;99.90
25825;DHT22;13658;44.534;18.694;2022-09-17T08:52:45;13.30;99.90
25825;DHT22;13658;44.534;18.694;2022-09-17T09:04:09;13.20;99.90
25825;DHT22;13658;44.534;18.694;2022-09-17T09:06:45;13.20;99.90
25825;DHT22;13658;44.534;18.694;2022-09-17T09:09:15;13.20;99.90
25825;DHT22;13658;44.534;18.694;2022-09-17T09:11:42;13.20;99.90
25825;DHT22;13658;44.534;18.694;2022-09-17T09:14:30;13.10;99.90
25825;DHT22;13658;44.534;18.694;2022-09-17T09:17:06;13.10;99.90
25825;DHT22;13658;44.534;18.694;2022-09-17T09:19:42;13.10;99.90
25825;DHT22;13658;44.534;18.694;2022-09-17T09:22:44;13.30;99.90
25825;DHT22;13658;44.534;18.694;2022-09-17T09:25:26;13.30;99.90
25825;DHT22;13658;44.534;18.694;2022-09-17T09:33:59;13.40;99.90
25825;DHT22;13658;44.534;18.694;2022-09-17T09:39:30;13.60;99.90
25825;DHT22;13658;44.534;18.694;2022-09-17T09:42:13;13.50;99.90
25825;DHT22;13658;44.534;18.694;2022-09-17T09:44:41;13.50;99.90
25825;DHT22;13658;44.534;18.694;2022-09-17T09:47:12;13.50;99.90
25825;DHT22;13658;44.534;18.694;2022-09-17T09:49:48;13.40;99.90
25825;DHT22;13658;44.534;18.694;2022-09-17T09:57:37;13.50;99.90
25825;DHT22;13658;44.534;18.694;2022-09-17T10:02:58;13.50;99.90
25825;DHT22;13658;44.534;18.694;2022-09-17T10:05:26;13.40;99.90
25825;DHT22;13658;44.534;18.694;2022-09-17T10:07:53;13.30;99.90
25825;DHT22;13658;44.534;18.694;2022-09-17T10:10:19;13.40;99.90
25825;DHT22;13658;44.534;18.694;2022-09-17T10:12:45;13.40;99.90
25825;DHT22;13658;44.534;18.694;2022-09-17T10:15:27;13.60;99.90
25825;DHT22;13658;44.534;18.694;2022-09-17T10:18:23;13.50;99.90
25825;DHT22;13658;44.534;18.694;2022-09-17T10:20:53;13.30;99.90
25825;DHT22;13658;44.534;18.694;2022-09-17T10:23:22;13.10;99.90
25825;DHT22;13658;44.534;18.694;2022-09-17T10:25:48;13.30;99.90
25825;DHT22;13658;44.534;18.694;2022-09-17T10:31:04;13.20;99.90
25825;DHT22;13658;44.534;18.694;2022-09-17T10:42:39;13.50;99.90
25825;DHT22;13658;44.534;18.694;2022-09-17T10:45:28;13.40;99.90
25825;DHT22;13658;44.534;18.694;2022-09-17T10:47:56;13.30;99.90
25825;DHT22;13658;44.534;18.694;2022-09-17T10:50:26;13.30;99.90
25825;DHT22;13658;44.534;18.694;2022-09-17T10:52:55;13.40;99.90
25825;DHT22;13658;44.534;18.694;2022-09-17T10:55:29;13.30;99.90
25825;DHT22;13658;44.534;18.694;2022-09-17T11:00:51;12.90;99.90
25825;DHT22;13658;44.534;18.694;2022-09-17T11:06:44;12.90;99.90
25825;DHT22;13658;44.534;18.694;2022-09-17T11:12:27;12.90;99.90
25825;DHT22;13658;44.534;18.694;2022-09-17T11:15:08;12.90;99.90
25825;DHT22;13658;44.534;18.694;2022-09-17T11:18:01;12.80;99.90
25825;DHT22;13658;44.534;18.694;2022-09-17T11:23:31;12.70;99.90
25825;DHT22;13658;44.534;18.694;2022-09-17T11:29:39;12.70;99.90
25825;DHT22;13658;44.534;18.694;2022-09-17T11:32:37;12.70;99.90
25825;DHT22;13658;44.534;18.694;2022-09-17T11:35:16;12.70;99.90
25825;DHT22;13658;44.534;18.694;2022-09-17T11:37:57;12.70;99.90
25825;DHT22;13658;44.534;18.694;2022-09-17T11:40:36;12.60;99.90
25825;DHT22;13658;44.534;18.694;2022-09-17T11:43:18;12.70;99.90
25825;DHT22;13658;44.534;18.694;2022-09-17T11:48:41;12.70;99.90
25825;DHT22;13658;44.534;18.694;2022-09-17T11:51:20;12.70;99.90
25825;DHT22;13658;44.534;18.694;2022-09-17T11:53:52;12.70;99.90
25825;DHT22;13658;44.534;18.694;2022-09-17T11:56:30;12.70;99.90
25825;DHT22;13658;44.534;18.694;2022-09-17T12:01:43;12.70;99.90
25825;DHT22;13658;44.534;18.694;2022-09-17T12:04:44;12.70;99.90
25825;DHT22;13658;44.534;18.694;2022-09-17T12:13:01;12.90;99.90
25825;DHT22;13658;44.534;18.694;2022-09-17T12:15:33;12.90;99.90
25825;DHT22;13658;44.534;18.694;2022-09-17T12:21:05;12.90;99.90
25825;DHT22;13658;44.534;18.694;2022-09-17T12:23:56;12.90;99.90
25825;DHT22;13658;44.534;18.694;2022-09-17T12:43:33;12.70;99.90
25825;DHT22;13658;44.534;18.694;2022-09-17T12:49:08;12.70;99.90
25825;DHT22;13658;44.534;18.694;2022-09-17T12:59:31;12.70;99.90
25825;DHT22;13658;44.534;18.694;2022-09-17T13:10:49;12.70;99.90
25825;DHT22;13658;44.534;18.694;2022-09-17T13:18:33;12.50;99.90
25825;DHT22;13658;44.534;18.694;2022-09-17T13:21:29;12.50;99.90
25825;DHT22;13658;44.534;18.694;2022-09-17T13:23:57;12.60;99.90
25825;DHT22;13658;44.534;18.694;2022-09-17T13:26:50;12.50;99.90
25825;DHT22;13658;44.534;18.694;2022-09-17T13:40:37;12.10;99.90
25825;DHT22;13658;44.534;18.694;2022-09-17T13:45:31;11.90;99.90
25825;DHT22;13658;44.534;18.694;2022-09-17T13:48:09;11.80;99.90
25825;DHT22;13658;44.534;18.694;2022-09-17T13:50:38;11.90;99.90
25825;DHT22;13658;44.534;18.694;2022-09-17T13:53:24;12.00;99.90
25825;DHT22;13658;44.534;18.694;2022-09-17T13:55:58;12.10;99.90
25825;DHT22;13658;44.534;18.694;2022-09-17T13:58:33;12.10;99.90
25825;DHT22;13658;44.534;18.694;2022-09-17T14:01:09;12.10;99.90
25825;DHT22;13658;44.534;18.694;2022-09-17T14:32:26;11.50;99.90
25825;DHT22;13658;44.534;18.694;2022-09-17T14:34:59;11.50;99.90
25825;DHT22;13658;44.534;18.694;2022-09-17T14:37:26;11.50;99.90
25825;DHT22;13658;44.534;18.694;2022-09-17T14:39:52;11.50;99.90
25825;DHT22;13658;44.534;18.694;2022-09-17T14:42:22;11.50;99.90
25825;DHT22;13658;44.534;18.694;2022-09-17T14:44:58;11.50;99.90
25825;DHT22;13658;44.534;18.694;2022-09-17T14:47:25;11.50;99.90
25825;DHT22;13658;44.534;18.694;2022-09-17T14:49:52;11.50;99.90
25825;DHT22;13658;44.534;18.694;2022-09-17T14:55:21;11.70;99.90
25825;DHT22;13658;44.534;18.694;2022-09-17T14:57:55;11.70;99.90
25825;DHT22;13658;44.534;18.694;2022-09-17T15:00:27;11.70;99.90
25825;DHT22;13658;44.534;18.694;2022-09-17T15:02:57;11.60;99.90
25825;DHT22;13658;44.534;18.694;2022-09-17T15:05:35;11.60;99.90
25825;DHT22;13658;44.534;18.694;2022-09-17T15:13:51;11.40;99.90
25825;DHT22;13658;44.534;18.694;2022-09-17T15:16:23;11.40;99.90
25825;DHT22;13658;44.534;18.694;2022-09-17T15:19:00;11.40;99.90
25825;DHT22;13658;44.534;18.694;2022-09-17T15:21:33;11.50;99.90
25825;DHT22;13658;44.534;18.694;2022-09-17T15:24:12;11.50;99.90
25825;DHT22;13658;44.534;18.694;2022-09-17T15:26:45;11.60;99.90
25825;DHT22;13658;44.534;18.694;2022-09-17T15:29:13;11.50;99.90
25825;DHT22;13658;44.534;18.694;2022-09-17T15:31:39;11.60;99.90
25825;DHT22;13658;44.534;18.694;2022-09-17T15:34:08;11.60;99.90
25825;DHT22;13658;44.534;18.694;2022-09-17T15:36:35;11.60;99.90
25825;DHT22;13658;44.534;18.694;2022-09-17T15:39:27;11.50;99.90
25825;DHT22;13658;44.534;18.694;2022-09-17T15:41:55;11.50;99.90
25825;DHT22;13658;44.534;18.694;2022-09-17T15:44:25;11.50;99.90
25825;DHT22;13658;44.534;18.694;2022-09-17T15:46:52;11.40;99.90
25825;DHT22;13658;44.534;18.694;2022-09-17T15:49:40;11.40;99.90
25825;DHT22;13658;44.534;18.694;2022-09-17T15:52:28;11.50;99.90
25825;DHT22;13658;44.534;18.694;2022-09-17T15:54:59;11.40;99.90
25825;DHT22;13658;44.534;18.694;2022-09-17T15:57:27;11.50;99.90
25825;DHT22;13658;44.534;18.694;2022-09-17T15:59:55;11.50;99.90
25825;DHT22;13658;44.534;18.694;2022-09-17T16:02:30;11.50;99.90
25825;DHT22;13658;44.534;18.694;2022-09-17T16:07:39;11.30;99.90
25825;DHT22;13658;44.534;18.694;2022-09-17T16:10:05;11.20;99.90
25825;DHT22;13658;44.534;18.694;2022-09-17T16:12:32;11.20;99.90
25825;DHT22;13658;44.534;18.694;2022-09-17T16:14:59;11.10;99.90
25825;DHT22;13658;44.534;18.694;2022-09-17T16:17:45;11.00;99.90
25825;DHT22;13658;44.534;18.694;2022-09-17T16:22:43;11.00;99.90
25825;DHT22;13658;44.534;18.694;2022-09-17T16:25:10;11.00;99.90
25825;DHT22;13658;44.534;18.694;2022-09-17T16:30:33;11.00;99.90
25825;DHT22;13658;44.534;18.694;2022-09-17T16:32:59;11.00;99.90
25825;DHT22;13658;44.534;18.694;2022-09-17T16:35:28;10.90;99.90
25825;DHT22;13658;44.534;18.694;2022-09-17T16:37:55;10.90;99.90
25825;DHT22;13658;44.534;18.694;2022-09-17T16:40:23;10.90;99.90
25825;DHT22;13658;44.534;18.694;2022-09-17T16:42:49;10.80;99.90
25825;DHT22;13658;44.534;18.694;2022-09-17T16:45:15;10.70;99.90
25825;DHT22;13658;44.534;18.694;2022-09-17T16:47:42;10.70;99.90
25825;DHT22;13658;44.534;18.694;2022-09-17T16:50:10;10.60;99.90
25825;DHT22;13658;44.534;18.694;2022-09-17T16:52:36;10.50;99.90
25825;DHT22;13658;44.534;18.694;2022-09-17T16:55:03;10.60;99.90
25825;DHT22;13658;44.534;18.694;2022-09-17T16:57:30;10.50;99.90
25825;DHT22;13658;44.534;18.694;2022-09-17T16:59:57;10.50;99.90
25825;DHT22;13658;44.534;18.694;2022-09-17T17:02:23;10.50;99.90
25825;DHT22;13658;44.534;18.694;2022-09-17T17:04:49;10.50;99.90
25825;DHT22;13658;44.534;18.694;2022-09-17T17:07:15;10.40;99.90
25825;DHT22;13658;44.534;18.694;2022-09-17T17:09:41;10.30;99.90
25825;DHT22;13658;44.534;18.694;2022-09-17T17:12:07;10.20;99.90
25825;DHT22;13658;44.534;18.694;2022-09-17T17:14:33;10.30;99.90
25825;DHT22;13658;44.534;18.694;2022-09-17T17:16:59;10.20;99.90
25825;DHT22;13658;44.534;18.694;2022-09-17T17:19:25;10.30;99.90
25825;DHT22;13658;44.534;18.694;2022-09-17T17:21:52;10.20;99.90
25825;DHT22;13658;44.534;18.694;2022-09-17T17:24:18;10.30;99.90
25825;DHT22;13658;44.534;18.694;2022-09-17T17:26:46;10.30;99.90
25825;DHT22;13658;44.534;18.694;2022-09-17T17:29:13;10.30;99.90
25825;DHT22;13658;44.534;18.694;2022-09-17T17:31:39;10.30;99.90
25825;DHT22;13658;44.534;18.694;2022-09-17T17:34:05;10.30;99.90
25825;DHT22;13658;44.534;18.694;2022-09-17T17:36:32;10.30;99.90
25825;DHT22;13658;44.534;18.694;2022-09-17T17:38:59;10.30;99.90
25825;DHT22;13658;44.534;18.694;2022-09-17T17:41:25;10.30;99.90
25825;DHT22;13658;44.534;18.694;2022-09-17T17:43:53;10.30;99.90
25825;DHT22;13658;44.534;18.694;2022-09-17T17:46:19;10.30;99.90
25825;DHT22;13658;44.534;18.694;2022-09-17T17:48:45;10.40;99.90
25825;DHT22;13658;44.534;18.694;2022-09-17T17:51:12;10.30;99.90
25825;DHT22;13658;44.534;18.694;2022-09-17T17:53:41;10.30;99.90
25825;DHT22;13658;44.534;18.694;2022-09-17T17:56:07;10.30;99.90
25825;DHT22;13658;44.534;18.694;2022-09-17T17:58:34;10.30;99.90
25825;DHT22;13658;44.534;18.694;2022-09-17T18:01:22;10.20;99.90
25825;DHT22;13658;44.534;18.694;2022-09-17T18:03:48;10.10;99.90
25825;DHT22;13658;44.534;18.694;2022-09-17T18:06:14;10.20;99.90
25825;DHT22;13658;44.534;18.694;2022-09-17T18:08:42;10.10;99.90
25825;DHT22;13658;44.534;18.694;2022-09-17T18:11:09;10.10;99.90
25825;DHT22;13658;44.534;18.694;2022-09-17T18:13:36;10.10;99.90
25825;DHT22;13658;44.534;18.694;2022-09-17T18:16:04;10.00;99.90
25825;DHT22;13658;44.534;18.694;2022-09-17T18:18:41;10.00;99.90
25825;DHT22;13658;44.534;18.694;2022-09-17T18:21:10;10.00;99.90
25825;DHT22;13658;44.534;18.694;2022-09-17T18:23:38;10.00;99.90
25825;DHT22;13658;44.534;18.694;2022-09-17T18:26:06;10.10;99.90
25825;DHT22;13658;44.534;18.694;2022-09-17T18:28:34;10.10;99.90
25825;DHT22;13658;44.534;18.694;2022-09-17T18:31:05;10.10;99.90
25825;DHT22;13658;44.534;18.694;2022-09-17T18:33:32;10.10;99.90
25825;DHT22;13658;44.534;18.694;2022-09-17T18:36:03;10.10;99.90
25825;DHT22;13658;44.534;18.694;2022-09-17T18:38:29;10.10;99.90
25825;DHT22;13658;44.534;18.694;2022-09-17T18:41:05;10.10;99.90
25825;DHT22;13658;44.534;18.694;2022-09-17T18:43:35;10.10;99.90
25825;DHT22;13658;44.534;18.694;2022-09-17T18:46:02;10.10;99.90
25825;DHT22;13658;44.534;18.694;2022-09-17T18:48:28;10.10;99.90
25825;DHT22;13658;44.534;18.694;2022-09-17T18:51:06;10.10;99.90
25825;DHT22;13658;44.534;18.694;2022-09-17T18:53:35;10.00;99.90
25825;DHT22;13658;44.534;18.694;2022-09-17T18:56:28;10.00;99.90
25825;DHT22;13658;44.534;18.694;2022-09-17T18:58:57;10.00;99.90
25825;DHT22;13658;44.534;18.694;2022-09-17T19:01:25;10.00;99.90
25825;DHT22;13658;44.534;18.694;2022-09-17T19:03:53;10.00;99.90
25825;DHT22;13658;44.534;18.694;2022-09-17T19:06:19;9.90;99.90
25825;DHT22;13658;44.534;18.694;2022-09-17T19:08:45;9.90;99.90
25825;DHT22;13658;44.534;18.694;2022-09-17T19:11:12;9.90;99.90
25825;DHT22;13658;44.534;18.694;2022-09-17T19:13:40;9.80;99.90
25825;DHT22;13658;44.534;18.694;2022-09-17T19:16:07;9.80;99.90
25825;DHT22;13658;44.534;18.694;2022-09-17T19:18:33;9.90;99.90